createdAt,value
2019-02-16T00:02:28.944Z,5.23
2019-02-16T00:04:57.223Z,4.97
2019-02-16T00:07:25.504Z,9.53
2019-02-16T00:09:54.111Z,5.80
2019-02-16T00:12:22.795Z,14.63
2019-02-16T00:14:51.109Z,7.97
2019-02-16T00:17:19.371Z,9.97
2019-02-16T00:19:47.672Z,5.60
2019-02-16T00:22:15.956Z,5.83
2019-02-16T00:24:44.599Z,9.23
2019-02-16T00:27:12.869Z,5.33
2019-02-16T00:29:41.185Z,6.17
2019-02-16T00:32:09.486Z,6.60
2019-02-16T00:34:37.735Z,8.17
2019-02-16T00:37:05.982Z,5.63
2019-02-16T00:39:34.256Z,6.60
2019-02-16T00:42:02.551Z,5.63
2019-02-16T00:44:30.932Z,4.00
2019-02-16T00:46:59.195Z,5.00
2019-02-16T00:49:27.430Z,6.63
2019-02-16T00:51:55.817Z,4.23
2019-02-16T00:54:24.078Z,11.40
2019-02-16T00:56:52.337Z,3.93
2019-02-16T00:59:20.615Z,4.17
2019-02-16T01:01:48.866Z,3.70
2019-02-16T01:04:17.237Z,5.77
2019-02-16T01:06:45.484Z,5.70
2019-02-16T01:09:13.728Z,4.90
2019-02-16T01:11:42.001Z,7.73
2019-02-16T01:14:10.258Z,5.97
2019-02-16T01:16:38.557Z,5.53
2019-02-16T01:19:06.803Z,6.70
2019-02-16T01:21:35.105Z,5.73
2019-02-16T01:24:04.036Z,6.73
2019-02-16T01:26:32.286Z,7.67
2019-02-16T01:29:01.153Z,6.73
2019-02-16T01:31:29.421Z,7.33
2019-02-16T01:33:57.672Z,8.00
2019-02-16T01:36:26.019Z,7.40
2019-02-16T01:38:54.273Z,5.13
2019-02-16T01:41:22.521Z,5.87
2019-02-16T01:43:50.827Z,5.30
2019-02-16T01:46:19.344Z,5.00
2019-02-16T01:48:47.618Z,4.00
2019-02-16T01:51:15.877Z,7.67
2019-02-16T01:53:44.224Z,6.10
2019-02-16T01:56:12.568Z,5.37
2019-02-16T01:58:40.864Z,4.67
2019-02-16T02:01:09.224Z,4.83
2019-02-16T02:03:37.585Z,10.30
2019-02-16T02:06:05.823Z,6.70
2019-02-16T02:08:34.134Z,5.77
2019-02-16T02:11:02.605Z,4.03
2019-02-16T02:13:30.879Z,7.37
2019-02-16T02:15:59.132Z,8.63
2019-02-16T02:18:27.415Z,5.10
2019-02-16T02:20:55.701Z,5.57
2019-02-16T02:23:23.966Z,6.80
2019-02-16T02:25:52.405Z,4.93
2019-02-16T02:28:20.634Z,6.73
2019-02-16T02:30:48.884Z,5.67
2019-02-16T02:33:17.720Z,5.90
2019-02-16T02:35:45.965Z,7.80
2019-02-16T02:38:14.213Z,8.10
2019-02-16T02:40:42.489Z,6.33
2019-02-16T02:43:10.820Z,6.07
2019-02-16T02:45:39.070Z,8.07
2019-02-16T02:48:07.389Z,5.20
2019-02-16T02:50:35.625Z,4.47
2019-02-16T02:53:03.959Z,6.70
2019-02-16T02:55:32.197Z,9.43
2019-02-16T02:58:00.559Z,5.30
2019-02-16T03:00:28.792Z,6.10
2019-02-16T03:02:57.102Z,9.70
2019-02-16T03:05:25.378Z,12.00
2019-02-16T03:07:53.627Z,6.33
2019-02-16T03:10:21.998Z,7.77
2019-02-16T03:12:50.303Z,10.20
2019-02-16T03:15:18.544Z,10.53
2019-02-16T03:17:46.816Z,7.07
2019-02-16T03:20:15.058Z,5.90
2019-02-16T03:23:17.775Z,9.83
2019-02-16T03:25:52.069Z,6.50
2019-02-16T03:28:35.603Z,4.83
2019-02-16T03:31:07.104Z,6.23
2019-02-16T03:33:38.674Z,5.33
2019-02-16T03:36:10.241Z,5.50
2019-02-16T03:38:41.758Z,7.20
2019-02-16T03:41:10.061Z,8.63
2019-02-16T03:43:38.319Z,7.30
2019-02-16T03:46:06.681Z,6.13
2019-02-16T03:48:36.666Z,5.80
2019-02-16T03:51:04.905Z,6.30
2019-02-16T03:53:33.204Z,9.17
2019-02-16T03:56:01.463Z,7.03
2019-02-16T03:58:29.747Z,12.60
2019-02-16T04:00:58.064Z,9.60
2019-02-16T04:03:26.352Z,7.17
2019-02-16T04:05:54.714Z,6.13
2019-02-16T04:08:22.959Z,5.90
2019-02-16T04:10:51.204Z,7.43
2019-02-16T04:13:19.475Z,7.57
2019-02-16T04:15:47.835Z,8.70
2019-02-16T04:18:16.509Z,9.93
2019-02-16T04:20:44.881Z,10.20
2019-02-16T04:23:14.434Z,13.40
2019-02-16T04:25:42.665Z,6.67
2019-02-16T04:28:10.949Z,14.33
2019-02-16T04:30:39.262Z,9.40
2019-02-16T04:33:07.582Z,9.27
2019-02-16T04:35:36.105Z,8.00
2019-02-16T04:38:04.397Z,7.33
2019-02-16T04:40:32.700Z,8.20
2019-02-16T04:43:00.996Z,8.87
2019-02-16T04:45:29.322Z,12.87
2019-02-16T04:47:57.641Z,12.33
2019-02-16T04:50:25.919Z,6.50
2019-02-16T04:52:54.214Z,10.97
2019-02-16T04:55:22.538Z,6.57
2019-02-16T04:57:50.865Z,8.53
2019-02-16T05:00:19.152Z,7.80
2019-02-16T05:02:47.382Z,8.47
2019-02-16T05:05:15.763Z,7.93
2019-02-16T05:07:44.343Z,11.07
2019-02-16T05:10:12.588Z,8.87
2019-02-16T05:12:40.854Z,7.37
2019-02-16T05:15:09.884Z,12.83
2019-02-16T05:17:38.147Z,11.30
2019-02-16T05:20:07.208Z,10.60
2019-02-16T05:22:44.323Z,10.97
2019-02-16T05:25:05.720Z,6.60
2019-02-16T05:27:34.030Z,6.53
2019-02-16T05:30:02.298Z,7.60
2019-02-16T05:32:30.553Z,11.80
2019-02-16T05:34:58.874Z,11.37
2019-02-16T05:37:27.127Z,20.00
2019-02-16T05:39:55.419Z,8.30
2019-02-16T05:42:23.662Z,15.17
2019-02-16T05:44:52.087Z,14.43
2019-02-16T05:47:20.334Z,8.97
2019-02-16T05:49:48.577Z,9.87
2019-02-16T05:52:16.855Z,16.57
2019-02-16T05:54:45.161Z,10.17
2019-02-16T05:57:13.470Z,9.73
2019-02-16T05:59:41.753Z,9.20
2019-02-16T06:02:10.131Z,11.60
2019-02-16T06:04:38.404Z,10.33
2019-02-16T06:07:06.694Z,13.80
2019-02-16T06:09:35.061Z,9.80
2019-02-16T06:12:03.317Z,11.33
2019-02-16T06:14:31.565Z,13.33
2019-02-16T06:16:59.834Z,9.30
2019-02-16T06:19:28.145Z,18.27
2019-02-16T06:21:56.462Z,12.87
2019-02-16T06:24:25.025Z,15.33
2019-02-16T06:26:53.611Z,12.07
2019-02-16T06:29:21.920Z,13.33
2019-02-16T06:31:50.288Z,10.10
2019-02-16T06:34:18.536Z,10.00
2019-02-16T06:36:46.795Z,15.57
2019-02-16T06:39:15.076Z,13.63
2019-02-16T06:41:43.351Z,10.90
2019-02-16T06:44:11.598Z,19.67
2019-02-16T06:46:39.930Z,12.43
2019-02-16T06:49:08.181Z,16.40
2019-02-16T06:51:36.421Z,12.90
2019-02-16T06:54:04.707Z,15.73
2019-02-16T06:56:34.608Z,16.27
2019-02-16T06:59:02.914Z,15.77
2019-02-16T07:01:33.114Z,16.50
2019-02-16T07:04:01.177Z,11.67
2019-02-16T07:06:29.538Z,16.30
2019-02-16T07:08:57.789Z,13.57
2019-02-16T07:11:26.086Z,14.87
2019-02-16T07:13:54.574Z,14.70
2019-02-16T07:16:28.075Z,16.93
2019-02-16T07:19:00.452Z,14.83
2019-02-16T07:21:28.811Z,14.17
2019-02-16T07:23:57.058Z,18.50
2019-02-16T07:26:25.387Z,9.57
2019-02-16T07:28:53.656Z,12.70
2019-02-16T07:31:21.907Z,10.77
2019-02-16T07:33:50.178Z,11.10
2019-02-16T07:36:18.633Z,16.97
2019-02-16T07:38:46.892Z,11.87
2019-02-16T07:41:15.184Z,14.07
2019-02-16T07:43:50.559Z,14.27
2019-02-16T07:46:32.432Z,11.83
2019-02-16T07:49:17.694Z,14.00
2019-02-16T07:52:03.945Z,11.00
2019-02-16T07:54:33.890Z,12.17
2019-02-16T07:57:06.716Z,12.97
2019-02-16T07:59:42.067Z,13.07
2019-02-16T08:02:12.012Z,14.40
2019-02-16T08:04:44.624Z,15.70
2019-02-16T08:07:16.941Z,13.03
2019-02-16T08:09:47.007Z,13.57
2019-02-16T08:12:28.809Z,17.87
2019-02-16T08:14:58.794Z,12.10
2019-02-16T08:17:40.994Z,11.07
2019-02-16T08:20:10.967Z,11.00
2019-02-16T08:22:57.556Z,15.27
2019-02-16T08:25:30.404Z,23.00
2019-02-16T08:28:00.354Z,16.63
2019-02-16T08:30:36.179Z,16.13
2019-02-16T08:33:06.072Z,14.33
2019-02-16T08:35:35.974Z,15.47
2019-02-16T08:38:08.941Z,26.40
2019-02-16T08:40:38.914Z,21.13
2019-02-16T08:43:11.517Z,27.67
2019-02-16T08:45:50.296Z,21.10
2019-02-16T08:48:20.243Z,21.40
2019-02-16T08:51:08.080Z,23.47
2019-02-16T08:53:50.260Z,14.60
2019-02-16T08:56:28.740Z,15.53
2019-02-16T08:59:01.189Z,20.23
2019-02-16T09:01:36.996Z,19.07
2019-02-16T09:04:06.886Z,16.13
2019-02-16T09:06:39.217Z,12.57
2019-02-16T09:09:21.109Z,15.33
2019-02-16T09:12:00.001Z,20.83
2019-02-16T09:14:36.187Z,13.37
2019-02-16T09:17:14.846Z,16.00
2019-02-16T09:19:44.865Z,13.60
2019-02-16T09:22:20.685Z,17.17
2019-02-16T09:24:50.705Z,14.37
2019-02-16T09:27:20.598Z,13.27
2019-02-16T09:29:50.496Z,13.63
2019-02-16T09:32:29.627Z,19.20
2019-02-16T09:35:05.285Z,17.20
2019-02-16T09:37:40.719Z,15.10
2019-02-16T09:40:10.609Z,14.57
2019-02-16T09:42:40.553Z,18.60
2019-02-16T09:45:19.694Z,18.40
2019-02-16T09:48:01.678Z,18.60
2019-02-16T09:50:43.542Z,15.77
2019-02-16T09:53:19.387Z,23.10
2019-02-16T09:55:49.319Z,15.73
2019-02-16T09:58:28.047Z,19.87
2019-02-16T10:01:12.906Z,15.53
2019-02-16T10:03:48.956Z,17.63
2019-02-16T10:06:21.820Z,20.37
2019-02-16T10:09:06.769Z,26.67
2019-02-16T10:11:36.798Z,35.03
2019-02-16T10:14:06.704Z,38.90
2019-02-16T10:16:52.771Z,43.73
2019-02-16T10:19:25.685Z,42.60
2019-02-16T10:22:04.602Z,43.90
2019-02-16T10:24:49.606Z,32.17
2019-02-16T10:27:19.578Z,28.67
2019-02-16T10:30:05.603Z,28.43
2019-02-16T10:32:51.716Z,23.27
2019-02-16T10:35:24.546Z,37.03
2019-02-16T10:38:00.481Z,32.27
2019-02-16T10:40:39.176Z,28.83
2019-02-16T10:43:14.832Z,42.67
2019-02-16T10:45:53.323Z,39.57
2019-02-16T10:48:25.985Z,27.37
2019-02-16T10:50:58.943Z,28.23
2019-02-16T10:53:31.674Z,23.73
2019-02-16T10:56:04.399Z,20.83
2019-02-16T10:58:50.564Z,29.80
2019-02-16T11:01:36.956Z,32.13
2019-02-16T11:04:06.851Z,22.53
2019-02-16T11:06:44.098Z,23.97
2019-02-16T11:09:22.811Z,21.40
2019-02-16T11:12:10.902Z,29.43
2019-02-16T11:14:40.831Z,51.17
2019-02-16T11:17:22.857Z,64.10
2019-02-16T11:20:04.802Z,79.20
2019-02-16T11:22:53.155Z,57.70
2019-02-16T11:25:35.320Z,129.17
2019-02-16T11:28:05.238Z,42.17
2019-02-16T11:30:37.951Z,31.10
2019-02-16T11:33:10.587Z,41.40
2019-02-16T11:35:40.522Z,33.10
2019-02-16T11:38:10.558Z,54.63
2019-02-16T11:40:40.454Z,32.13
2019-02-16T11:43:26.378Z,26.20
2019-02-16T11:45:59.028Z,34.27
2019-02-16T11:48:34.720Z,35.47
2019-02-16T11:51:23.069Z,18.90
2019-02-16T11:54:04.835Z,28.27
2019-02-16T11:56:37.433Z,22.13
2019-02-16T11:59:22.590Z,22.63
2019-02-16T12:01:58.774Z,39.23
2019-02-16T12:04:31.080Z,26.20
2019-02-16T12:07:16.119Z,22.60
2019-02-16T12:09:54.899Z,25.37
2019-02-16T12:12:39.576Z,21.83
2019-02-16T12:15:24.526Z,20.17
2019-02-16T12:18:03.393Z,23.43
2019-02-16T12:20:42.211Z,26.00
2019-02-16T12:23:12.209Z,28.67
2019-02-16T12:26:00.085Z,21.93
2019-02-16T12:28:46.691Z,22.07
2019-02-16T12:31:19.518Z,29.47
2019-02-16T12:33:52.397Z,28.17
2019-02-16T12:36:34.064Z,28.40
2019-02-16T12:39:09.516Z,27.20
2019-02-16T12:41:42.118Z,23.47
2019-02-16T12:44:20.903Z,23.00
2019-02-16T12:47:07.358Z,21.83
2019-02-16T12:49:40.085Z,21.70
2019-02-16T12:52:15.645Z,21.40
2019-02-16T12:54:48.238Z,20.23
2019-02-16T12:57:20.943Z,21.97
2019-02-16T12:59:53.579Z,21.37
2019-02-16T13:02:29.027Z,20.03
2019-02-16T13:05:11.100Z,23.80
2019-02-16T13:07:46.833Z,30.37
2019-02-16T13:10:31.036Z,22.93
2019-02-16T13:13:01.068Z,18.93
2019-02-16T13:15:49.093Z,21.30
2019-02-16T13:18:19.053Z,27.13
2019-02-16T13:20:58.021Z,21.10
2019-02-16T13:23:30.717Z,17.03
2019-02-16T13:26:03.067Z,33.03
2019-02-16T13:28:45.356Z,21.27
2019-02-16T13:31:33.494Z,19.30
2019-02-16T13:34:18.569Z,17.90
2019-02-16T13:36:55.131Z,22.27
2019-02-16T13:39:30.537Z,27.43
2019-02-16T13:42:00.504Z,26.10
2019-02-16T13:44:30.392Z,21.70
2019-02-16T13:47:06.106Z,23.07
2019-02-16T13:49:38.733Z,20.57
2019-02-16T13:52:24.082Z,21.30
2019-02-16T13:54:53.965Z,20.90
2019-02-16T13:57:29.681Z,17.93
2019-02-16T14:00:02.427Z,22.40
2019-02-16T14:02:32.325Z,19.67
2019-02-16T14:05:04.917Z,25.90
2019-02-16T14:07:41.003Z,21.77
2019-02-16T14:10:16.585Z,20.53
2019-02-16T14:13:02.640Z,23.40
2019-02-16T14:15:44.373Z,20.47
2019-02-16T14:18:12.712Z,24.03
2019-02-16T14:20:40.964Z,22.83
2019-02-16T14:23:09.243Z,21.90
2019-02-16T14:25:43.848Z,20.93
2019-02-16T14:28:09.172Z,20.63
2019-02-16T14:30:37.444Z,26.37
2019-02-16T14:33:06.271Z,24.73
2019-02-16T14:35:34.596Z,27.03
2019-02-16T14:38:07.300Z,23.40
2019-02-16T14:40:35.527Z,24.23
2019-02-16T14:43:03.778Z,22.77
2019-02-16T14:45:33.732Z,25.10
2019-02-16T14:48:02.005Z,22.33
2019-02-16T14:50:30.325Z,24.97
2019-02-16T14:52:58.576Z,20.77
2019-02-16T14:55:27.005Z,24.20
2019-02-16T14:57:55.250Z,21.90
2019-02-16T15:00:23.505Z,27.10
2019-02-16T15:02:51.785Z,20.90
2019-02-16T15:05:20.042Z,22.50
2019-02-16T15:07:48.362Z,22.00
2019-02-16T15:10:16.620Z,23.63
2019-02-16T15:12:44.921Z,24.70
2019-02-16T15:15:13.201Z,25.63
2019-02-16T15:17:41.464Z,25.00
2019-02-16T15:20:12.420Z,28.50
2019-02-16T15:22:40.725Z,25.53
2019-02-16T15:25:10.920Z,26.03
2019-02-16T15:27:40.528Z,26.57
2019-02-16T15:30:11.527Z,20.37
2019-02-16T15:32:39.861Z,30.13
2019-02-16T15:35:09.763Z,28.90
2019-02-16T15:37:38.154Z,42.93
2019-02-16T15:40:30.910Z,45.70
2019-02-16T15:42:59.287Z,34.77
2019-02-16T15:45:27.657Z,28.80
2019-02-16T15:47:55.906Z,25.80
2019-02-16T15:50:24.184Z,28.17
2019-02-16T15:52:52.443Z,30.37
2019-02-16T15:55:20.750Z,30.50
2019-02-16T15:57:49.042Z,27.17
2019-02-16T16:00:21.827Z,42.67
2019-02-16T16:02:50.070Z,39.57
2019-02-16T16:05:18.328Z,32.10
2019-02-16T16:07:48.256Z,25.10
2019-02-16T16:10:23.837Z,26.27
2019-02-16T16:13:09.885Z,19.97
2019-02-16T16:15:44.715Z,25.47
2019-02-16T16:18:22.940Z,21.43
2019-02-16T16:21:08.752Z,21.00
2019-02-16T16:23:38.703Z,22.03
2019-02-16T16:26:08.599Z,27.67
2019-02-16T16:28:38.571Z,24.13
2019-02-16T16:31:11.649Z,25.67
2019-02-16T16:33:52.127Z,25.60
2019-02-16T16:36:34.113Z,31.53
2019-02-16T16:39:09.781Z,19.03
2019-02-16T16:41:45.782Z,24.77
2019-02-16T16:44:22.290Z,21.57
2019-02-16T16:46:52.215Z,26.03
2019-02-16T16:49:24.579Z,26.23
2019-02-16T16:52:09.553Z,22.87
2019-02-16T16:54:57.701Z,24.97
2019-02-16T16:57:30.433Z,23.90
2019-02-16T17:00:16.646Z,27.30
2019-02-16T17:03:03.035Z,31.07
2019-02-16T17:05:32.948Z,28.43
2019-02-16T17:08:19.025Z,35.40
2019-02-16T17:10:48.928Z,29.70
2019-02-16T17:13:27.659Z,30.43
2019-02-16T17:16:00.714Z,29.77
2019-02-16T17:18:30.617Z,29.63
2019-02-16T17:21:00.605Z,30.93
2019-02-16T17:23:35.057Z,27.50
2019-02-16T17:26:17.082Z,28.17
2019-02-16T17:28:47.029Z,42.03
2019-02-16T17:31:16.928Z,28.03
2019-02-16T17:33:46.856Z,28.90
2019-02-16T17:36:26.221Z,34.10
2019-02-16T17:39:12.440Z,28.70
2019-02-16T17:41:47.926Z,33.40
2019-02-16T17:44:33.177Z,25.80
2019-02-16T17:47:19.097Z,28.93
2019-02-16T17:49:54.904Z,26.30
2019-02-16T17:52:30.980Z,28.20
2019-02-16T17:55:06.959Z,35.20
2019-02-16T17:57:36.891Z,29.67
2019-02-16T18:00:12.484Z,29.63
2019-02-16T18:02:48.181Z,31.00
2019-02-16T18:05:34.303Z,31.40
2019-02-16T18:08:04.253Z,33.60
2019-02-16T18:10:49.317Z,35.37
2019-02-16T18:13:34.586Z,32.40
2019-02-16T18:16:13.703Z,32.47
2019-02-16T18:18:43.600Z,28.97
2019-02-16T18:21:16.339Z,31.03
2019-02-16T18:23:49.314Z,32.40
2019-02-16T18:26:37.359Z,25.93
2019-02-16T18:29:19.536Z,27.13
2019-02-16T18:32:05.736Z,35.17
2019-02-16T18:34:38.847Z,34.73
2019-02-16T18:37:09.217Z,33.37
2019-02-16T18:39:41.974Z,31.17
2019-02-16T18:42:12.435Z,41.37
2019-02-16T18:44:48.064Z,34.23
2019-02-16T18:47:36.357Z,35.87
2019-02-16T18:50:09.468Z,30.53
2019-02-16T18:52:46.012Z,31.40
2019-02-16T18:55:15.927Z,30.47
2019-02-16T18:58:02.116Z,37.23
2019-02-16T19:00:32.056Z,32.97
2019-02-16T19:03:04.794Z,33.93
2019-02-16T19:05:44.416Z,30.70
2019-02-16T19:08:19.985Z,31.77
2019-02-16T19:10:49.957Z,29.13
2019-02-16T19:13:36.181Z,37.83
2019-02-16T19:16:09.071Z,31.87
2019-02-16T19:18:39.095Z,29.93
2019-02-16T19:21:11.668Z,31.03
2019-02-16T19:23:50.469Z,35.77
2019-02-16T19:26:36.356Z,30.30
2019-02-16T19:29:06.252Z,32.20
2019-02-16T19:31:36.334Z,27.17
2019-02-16T19:34:12.347Z,31.03
2019-02-16T19:36:54.303Z,37.57
2019-02-16T19:39:40.435Z,44.57
2019-02-16T19:42:13.190Z,29.17
2019-02-16T19:44:55.721Z,31.30
2019-02-16T19:47:41.635Z,33.77
2019-02-16T19:50:11.534Z,37.50
2019-02-16T19:52:41.511Z,29.77
2019-02-16T19:55:11.452Z,30.00
2019-02-16T19:57:47.175Z,37.43
2019-02-16T20:00:32.135Z,33.90
2019-02-16T20:03:16.753Z,37.70
2019-02-16T20:05:52.830Z,35.60
2019-02-16T20:08:37.504Z,35.17
2019-02-16T20:11:08.923Z,32.90
2019-02-16T20:13:54.955Z,37.43
2019-02-16T20:16:30.998Z,36.53
2019-02-16T20:19:01.088Z,37.67
2019-02-16T20:21:33.710Z,32.20
2019-02-16T20:24:03.618Z,43.27
2019-02-16T20:26:52.015Z,46.43
2019-02-16T20:29:27.678Z,38.03
2019-02-16T20:32:15.622Z,38.23
2019-02-16T20:34:45.249Z,34.60
2019-02-16T20:37:18.055Z,34.90
2019-02-16T20:39:59.998Z,42.03
2019-02-16T20:42:35.435Z,40.20
2019-02-16T20:45:08.413Z,44.57
2019-02-16T20:47:38.427Z,36.43
2019-02-16T20:50:11.269Z,40.63
2019-02-16T20:52:53.276Z,35.53
2019-02-16T20:55:39.655Z,39.03
2019-02-16T20:58:26.126Z,34.40
2019-02-16T21:01:14.120Z,31.93
2019-02-16T21:03:44.032Z,34.07
2019-02-16T21:06:16.429Z,41.10
2019-02-16T21:09:02.657Z,31.70
2019-02-16T21:11:50.689Z,40.10
2019-02-16T21:14:32.491Z,42.93
2019-02-16T21:17:05.117Z,34.33
2019-02-16T21:19:51.317Z,32.67
2019-02-16T21:22:21.280Z,33.23
2019-02-16T21:25:03.390Z,39.03
2019-02-16T21:27:36.510Z,35.40
2019-02-16T21:30:08.745Z,37.87
2019-02-16T21:32:54.555Z,44.67
2019-02-16T21:35:33.943Z,34.97
2019-02-16T21:38:16.135Z,37.37
2019-02-16T21:40:49.121Z,39.77
2019-02-16T21:43:38.131Z,39.80
2019-02-16T21:46:11.027Z,40.27
2019-02-16T21:48:40.927Z,39.40
2019-02-16T21:51:27.211Z,43.43
2019-02-16T21:53:57.104Z,44.13
2019-02-16T21:56:29.615Z,38.30
2019-02-16T21:59:07.483Z,49.20
2019-02-16T22:01:43.189Z,41.10
2019-02-16T22:04:18.798Z,41.40
2019-02-16T22:06:48.803Z,48.97
2019-02-16T22:09:34.873Z,40.60
2019-02-16T22:12:21.352Z,42.13
2019-02-16T22:14:51.197Z,37.23
2019-02-16T22:17:19.471Z,39.93
2019-02-16T22:19:47.740Z,43.00
2019-02-16T22:22:16.011Z,48.60
2019-02-16T22:24:44.319Z,42.55
2019-02-16T22:27:12.594Z,42.17
2019-02-16T22:29:40.871Z,41.70
2019-02-16T22:32:09.124Z,45.30
2019-02-16T22:34:37.532Z,45.03
2019-02-16T22:37:05.796Z,46.37
2019-02-16T22:39:34.086Z,49.80
2019-02-16T22:42:02.459Z,41.77
2019-02-16T22:44:30.708Z,45.47
2019-02-16T22:46:59.009Z,38.30
2019-02-16T22:49:27.316Z,42.33
2019-02-16T22:51:55.678Z,46.63
2019-02-16T22:54:23.930Z,46.57
2019-02-16T22:56:52.349Z,48.77
2019-02-16T22:59:20.601Z,41.63
2019-02-16T23:01:48.857Z,48.93
2019-02-16T23:04:18.002Z,44.43
2019-02-16T23:06:46.435Z,46.03
2019-02-16T23:09:22.188Z,43.80
2019-02-16T23:11:50.578Z,46.67
2019-02-16T23:14:18.826Z,50.87
2019-02-16T23:16:47.106Z,45.93
2019-02-16T23:19:15.439Z,47.53
2019-02-16T23:21:43.788Z,44.40
2019-02-16T23:24:12.049Z,47.23
2019-02-16T23:26:40.357Z,49.87
2019-02-16T23:29:08.698Z,48.13
2019-02-16T23:31:37.001Z,47.97
2019-02-16T23:34:05.259Z,46.67
2019-02-16T23:36:33.564Z,60.77
2019-02-16T23:39:01.872Z,48.90
2019-02-16T23:41:30.120Z,44.37
2019-02-16T23:43:58.505Z,44.33
2019-02-16T23:46:26.763Z,44.93
2019-02-16T23:48:55.028Z,48.40
2019-02-16T23:51:23.333Z,41.27
2019-02-16T23:53:51.584Z,42.23
2019-02-16T23:56:19.887Z,41.73
2019-02-16T23:58:49.577Z,46.40
